Time;durP1;ratioP1;P1;durP2;ratioP2;P2;SDS_P1;SDS_P2;PMS_P1;PMS_P2;Temp;Humidity;BMP_temperature;BMP_pressure;BME280_temperature;BME280_humidity;BME280_pressure;Samples;Min_cycle;Max_cycle;Signal;HPM_P1;HPM_P2
2023/04/28 00:01:37;;;;;;;1.63;1.38;;;19.60;47.10;;;;;;5071427;28;45380;-69
2023/04/28 00:04:04;;;;;;;2.30;1.80;;;19.60;47.20;;;;;;5065609;28;46993;-70
2023/04/28 00:06:31;;;;;;;1.60;1.50;;;19.60;47.30;;;;;;5065567;28;45429;-69
2023/04/28 00:08:57;;;;;;;1.65;1.55;;;19.50;47.30;;;;;;5082239;28;45419;-69
2023/04/28 00:11:25;;;;;;;2.38;1.63;;;19.50;47.30;;;;;;5083237;28;45238;-70
2023/04/28 00:13:52;;;;;;;1.52;1.42;;;19.50;47.30;;;;;;5085833;28;46419;-70
2023/04/28 00:16:19;;;;;;;3.58;1.75;;;19.50;47.30;;;;;;5085949;28;45355;-70
2023/04/28 00:18:46;;;;;;;1.70;1.60;;;19.50;47.30;;;;;;5070771;28;45392;-70
2023/04/28 00:21:13;;;;;;;2.25;1.50;;;19.50;47.40;;;;;;5069102;28;45559;-69
2023/04/28 00:23:40;;;;;;;3.00;1.58;;;19.50;47.40;;;;;;5065761;28;46381;-68
2023/04/28 00:26:06;;;;;;;1.58;1.48;;;19.50;47.60;;;;;;5065826;28;45376;-69
2023/04/28 00:28:35;;;;;;;2.78;1.50;;;19.50;47.50;;;;;;5079482;28;45470;-68
2023/04/28 00:31:01;;;;;;;1.85;1.60;;;19.50;47.50;;;;;;5086118;28;45258;-67
2023/04/28 00:33:28;;;;;;;1.58;1.48;;;19.50;47.50;;;;;;5076090;28;45535;-66
2023/04/28 00:35:59;;;;;;;1.45;1.27;;;19.40;47.70;;;;;;5068811;28;45447;-67
2023/04/28 00:38:26;;;;;;;1.65;1.55;;;19.40;47.70;;;;;;5065532;28;45464;-68
2023/04/28 00:40:53;;;;;;;1.65;1.33;;;19.40;47.70;;;;;;5065866;28;45432;-68
2023/04/28 00:43:19;;;;;;;1.77;1.67;;;19.40;47.70;;;;;;5066453;28;45232;-68
2023/04/28 00:45:48;;;;;;;2.40;1.55;;;19.40;47.60;;;;;;5063550;28;45313;-67
2023/04/28 00:48:15;;;;;;;1.67;1.50;;;19.40;47.80;;;;;;5065604;28;45408;-67
2023/04/28 00:50:42;;;;;;;2.08;1.55;;;19.40;47.70;;;;;;5065516;28;45202;-67
2023/04/28 00:53:09;;;;;;;1.45;1.33;;;19.40;47.60;;;;;;5065110;28;45258;-67
2023/04/28 00:55:36;;;;;;;1.58;1.48;;;19.40;47.70;;;;;;5065436;28;45282;-66
2023/04/28 00:58:02;;;;;;;1.63;1.45;;;19.40;47.60;;;;;;5065573;28;45385;-69
2023/04/28 01:00:29;;;;;;;1.60;1.50;;;19.40;47.50;;;;;;5065619;28;45325;-68
2023/04/28 01:02:57;;;;;;;2.00;1.60;;;19.40;47.50;;;;;;5065173;28;46478;-68
2023/04/28 01:05:25;;;;;;;2.63;1.70;;;19.40;47.50;;;;;;5065268;28;45346;-67
2023/04/28 01:07:52;;;;;;;2.38;1.98;;;19.40;47.70;;;;;;5065300;28;45258;-68
2023/04/28 01:10:18;;;;;;;2.92;2.05;;;19.40;47.70;;;;;;5065534;28;45603;-68
2023/04/28 01:12:45;;;;;;;2.08;1.85;;;19.40;47.80;;;;;;5064566;28;45393;-68
2023/04/28 01:15:15;;;;;;;2.58;2.38;;;19.40;48.00;;;;;;5065352;28;45263;-66
2023/04/28 01:17:42;;;;;;;2.40;2.20;;;19.40;48.10;;;;;;5065098;28;45337;-68
2023/04/28 01:20:11;;;;;;;3.17;2.25;;;19.40;48.20;;;;;;5065175;28;45237;-69
2023/04/28 01:22:37;;;;;;;2.00;1.85;;;19.40;48.00;;;;;;5064794;28;46436;-67
2023/04/28 01:25:06;;;;;;;2.42;2.22;;;19.40;48.30;;;;;;5065182;28;45166;-68
2023/04/28 01:27:33;;;;;;;2.38;2.17;;;19.40;48.90;;;;;;5064932;28;45417;-69
2023/04/28 01:29:59;;;;;;;2.60;2.38;;;19.40;48.30;;;;;;5065350;28;45379;-69
2023/04/28 01:32:26;;;;;;;2.78;2.22;;;19.30;48.40;;;;;;5064644;28;48594;-69
2023/04/28 01:34:53;;;;;;;3.22;2.30;;;19.30;48.30;;;;;;5067657;28;45261;-69
2023/04/28 01:37:21;;;;;;;2.25;2.10;;;19.30;49.10;;;;;;5068575;28;45395;-68
2023/04/28 01:39:48;;;;;;;3.45;2.22;;;19.30;48.60;;;;;;5068544;28;45556;-66
2023/04/28 01:42:16;;;;;;;2.50;2.30;;;19.30;48.70;;;;;;5068206;28;45323;-69
2023/04/28 01:44:42;;;;;;;3.22;2.17;;;19.30;48.50;;;;;;5065640;28;45417;-66
2023/04/28 01:47:09;;;;;;;3.20;2.08;;;19.30;48.70;;;;;;5068478;28;45270;-67
2023/04/28 01:49:36;;;;;;;2.45;2.25;;;19.30;48.70;;;;;;5068374;28;45257;-67
2023/04/28 01:52:03;;;;;;;5.00;2.55;;;19.30;48.60;;;;;;5067786;28;45357;-67
2023/04/28 01:54:30;;;;;;;2.45;2.22;;;19.30;48.80;;;;;;5067867;28;45316;-68
2023/04/28 01:56:57;;;;;;;2.75;2.55;;;19.20;48.80;;;;;;5068209;28;45478;-66
2023/04/28 01:59:25;;;;;;;4.30;2.25;;;19.20;48.80;;;;;;5068484;28;45380;-67
2023/04/28 02:01:52;;;;;;;2.22;1.92;;;19.20;48.90;;;;;;5067544;28;46330;-68
2023/04/28 02:04:18;;;;;;;3.17;2.40;;;19.20;49.00;;;;;;5067798;28;45314;-66
2023/04/28 02:06:45;;;;;;;2.10;2.00;;;19.20;49.30;;;;;;5068040;28;45347;-68
2023/04/28 02:09:12;;;;;;;3.88;2.22;;;19.20;49.10;;;;;;5068120;28;45246;-66
2023/04/28 02:11:39;;;;;;;2.40;2.20;;;19.20;49.20;;;;;;5067540;28;45333;-67
2023/04/28 02:14:06;;;;;;;2.83;2.30;;;19.10;49.20;;;;;;5067905;28;45181;-67
2023/04/28 02:16:34;;;;;;;2.67;2.15;;;19.10;49.40;;;;;;5067815;28;45148;-66
2023/04/28 02:19:01;;;;;;;2.40;2.20;;;19.10;49.50;;;;;;5067910;28;45522;-68
2023/04/28 02:21:28;;;;;;;2.80;2.08;;;19.10;49.50;;;;;;5067337;28;47375;-67
2023/04/28 02:23:55;;;;;;;1.88;1.77;;;19.10;49.50;;;;;;5067607;28;45249;-67
2023/04/28 02:26:21;;;;;;;2.60;2.40;;;19.00;49.50;;;;;;5067419;28;45250;-68
2023/04/28 02:28:48;;;;;;;2.80;1.95;;;19.00;49.80;;;;;;5067698;28;45382;-66
2023/04/28 02:31:15;;;;;;;2.22;1.88;;;19.00;49.50;;;;;;5067159;28;45469;-66
2023/04/28 02:33:43;;;;;;;2.33;2.13;;;19.00;49.50;;;;;;5067034;28;45312;-66
2023/04/28 02:36:11;;;;;;;3.03;2.17;;;19.00;49.80;;;;;;5067533;28;45312;-67
2023/04/28 02:38:37;;;;;;;2.70;2.20;;;19.00;49.90;;;;;;5067646;28;45325;-68
2023/04/28 02:41:05;;;;;;;2.25;2.08;;;19.00;50.00;;;;;;5066781;28;47312;-67
2023/04/28 02:43:32;;;;;;;2.30;2.10;;;19.00;49.90;;;;;;5067263;28;45341;-67
2023/04/28 02:45:59;;;;;;;2.05;1.85;;;19.00;50.30;;;;;;5066339;28;45266;-67
2023/04/28 02:48:25;;;;;;;2.38;2.08;;;18.90;50.10;;;;;;5067397;28;45195;-68
2023/04/28 02:50:54;;;;;;;2.30;2.10;;;18.90;50.20;;;;;;5067016;28;45361;-68
2023/04/28 02:53:20;;;;;;;2.10;1.85;;;18.90;50.40;;;;;;5067016;28;45359;-68
2023/04/28 02:55:47;;;;;;;2.63;2.13;;;18.90;50.30;;;;;;5067091;28;45412;-68
2023/04/28 02:58:14;;;;;;;2.10;1.90;;;18.90;50.30;;;;;;5067226;28;45304;-67
2023/04/28 03:00:41;;;;;;;2.13;1.88;;;18.90;50.20;;;;;;5066799;28;45499;-67
2023/04/28 03:03:08;;;;;;;2.00;1.88;;;18.90;50.20;;;;;;5066782;28;45401;-68
2023/04/28 03:05:35;;;;;;;1.83;1.73;;;18.90;50.30;;;;;;5067029;28;45448;-68
2023/04/28 03:08:03;;;;;;;1.60;1.50;;;18.90;50.40;;;;;;5067252;28;45423;-67
2023/04/28 03:10:30;;;;;;;2.30;2.10;;;18.80;50.40;;;;;;5066594;28;45258;-67
2023/04/28 03:12:56;;;;;;;1.98;1.75;;;18.80;50.50;;;;;;5066750;28;45253;-68
2023/04/28 03:15:23;;;;;;;2.55;1.95;;;18.80;50.40;;;;;;5066923;28;45394;-67
2023/04/28 03:17:50;;;;;;;1.92;1.83;;;18.80;50.30;;;;;;5067081;28;45461;-67
2023/04/28 03:20:17;;;;;;;2.22;2.10;;;18.80;50.70;;;;;;5066636;28;45389;-66
2023/04/28 03:22:44;;;;;;;2.03;1.80;;;18.80;50.60;;;;;;5066554;28;45403;-66
2023/04/28 03:25:12;;;;;;;1.70;1.60;;;18.80;50.40;;;;;;5066841;28;45313;-66
2023/04/28 03:27:39;;;;;;;1.83;1.70;;;18.80;50.60;;;;;;5066493;28;45455;-67
2023/04/28 03:30:07;;;;;;;1.98;1.80;;;18.80;50.70;;;;;;5063814;28;45415;-66
2023/04/28 03:32:33;;;;;;;2.22;1.90;;;18.70;50.50;;;;;;5066425;28;45389;-66
2023/04/28 03:35:00;;;;;;;2.20;1.90;;;18.70;50.60;;;;;;5066628;28;45323;-67
2023/04/28 03:37:27;;;;;;;1.98;1.67;;;18.70;50.60;;;;;;5066811;28;45396;-67
2023/04/28 03:39:54;;;;;;;2.38;2.00;;;18.70;50.60;;;;;;5066252;28;46385;-66
2023/04/28 03:42:22;;;;;;;1.55;1.45;;;18.70;50.60;;;;;;5066364;28;45249;-68
2023/04/28 03:44:49;;;;;;;2.10;1.90;;;18.70;50.60;;;;;;5066596;28;45310;-67
2023/04/28 03:47:16;;;;;;;1.98;1.77;;;18.70;50.60;;;;;;5066897;28;45266;-67
2023/04/28 03:49:42;;;;;;;2.10;1.60;;;18.70;50.60;;;;;;5066164;28;46367;-66
2023/04/28 03:52:09;;;;;;;2.40;2.15;;;18.70;50.60;;;;;;5065944;28;45320;-67
2023/04/28 03:54:36;;;;;;;1.67;1.58;;;18.70;50.60;;;;;;5066493;28;45301;-67
2023/04/28 03:57:03;;;;;;;2.17;1.65;;;18.70;51.20;;;;;;5066086;28;45471;-67
2023/04/28 03:59:31;;;;;;;2.00;1.90;;;18.60;50.50;;;;;;5065993;28;47334;-68
2023/04/28 04:01:58;;;;;;;1.70;1.60;;;18.60;50.70;;;;;;5065944;28;45306;-67
2023/04/28 04:04:25;;;;;;;2.13;1.90;;;18.60;50.70;;;;;;5066186;28;45345;-67
2023/04/28 04:06:52;;;;;;;1.63;1.52;;;18.60;50.80;;;;;;5065876;28;45443;-67
2023/04/28 04:09:19;;;;;;;2.35;1.88;;;18.60;50.80;;;;;;5066216;28;45519;-67
2023/04/28 04:11:46;;;;;;;1.75;1.65;;;18.60;50.80;;;;;;5066003;28;45384;-67
2023/04/28 04:14:12;;;;;;;2.45;1.85;;;18.60;50.90;;;;;;5066144;28;45254;-67
2023/04/28 04:16:41;;;;;;;1.55;1.45;;;18.50;50.90;;;;;;5066294;28;45274;-67
2023/04/28 04:19:08;;;;;;;3.00;1.67;;;18.50;50.90;;;;;;5065803;28;45389;-67
2023/04/28 04:21:35;;;;;;;2.75;1.80;;;18.50;50.80;;;;;;5065888;28;45364;-67
2023/04/28 04:24:01;;;;;;;1.83;1.60;;;18.50;51.00;;;;;;5065950;28;45197;-67
2023/04/28 04:26:28;;;;;;;2.05;1.30;;;18.50;50.90;;;;;;5065697;28;45203;-67
2023/04/28 04:28:55;;;;;;;1.70;1.60;;;18.50;50.90;;;;;;5065754;28;45404;-67
2023/04/28 04:31:22;;;;;;;1.73;1.63;;;18.50;51.00;;;;;;5065605;28;45539;-67
2023/04/28 04:33:50;;;;;;;1.80;1.70;;;18.50;51.00;;;;;;5065655;28;45426;-67
2023/04/28 04:36:17;;;;;;;1.67;1.58;;;18.50;51.10;;;;;;5066103;28;45128;-67
2023/04/28 04:38:44;;;;;;;1.50;1.40;;;18.50;51.00;;;;;;5065603;28;46355;-67
2023/04/28 04:41:10;;;;;;;1.50;1.40;;;18.50;51.00;;;;;;5065609;28;45270;-67
2023/04/28 04:43:37;;;;;;;1.50;1.40;;;18.50;51.00;;;;;;5065953;28;45429;-67
2023/04/28 04:46:04;;;;;;;1.80;1.70;;;18.50;51.00;;;;;;5065650;28;45375;-66
2023/04/28 04:48:31;;;;;;;2.00;1.75;;;18.50;50.90;;;;;;5065288;28;46613;-66
2023/04/28 04:50:59;;;;;;;1.70;1.40;;;18.40;50.90;;;;;;5065126;28;45325;-67
2023/04/28 04:53:26;;;;;;;1.50;1.40;;;18.40;50.80;;;;;;5065676;28;45581;-67
2023/04/28 04:55:53;;;;;;;1.60;1.45;;;18.40;50.80;;;;;;5065554;28;45354;-67
2023/04/28 04:58:19;;;;;;;1.50;1.40;;;18.40;50.90;;;;;;5065390;28;46351;-67
2023/04/28 05:00:46;;;;;;;1.70;1.60;;;18.40;50.90;;;;;;5065264;28;45209;-67
2023/04/28 05:03:13;;;;;;;1.60;1.50;;;18.40;51.00;;;;;;5065517;28;45316;-67
2023/04/28 05:05:40;;;;;;;1.80;1.70;;;18.40;51.00;;;;;;5065772;28;45411;-67
2023/04/28 05:08:08;;;;;;;1.50;1.40;;;18.40;51.00;;;;;;5065532;28;46476;-67
2023/04/28 05:10:35;;;;;;;1.55;1.45;;;18.40;51.00;;;;;;5068867;28;45448;-67
2023/04/28 05:13:02;;;;;;;1.83;1.70;;;18.40;51.10;;;;;;5068998;28;45337;-67
2023/04/28 05:15:29;;;;;;;2.03;1.40;;;18.40;51.00;;;;;;5069217;28;45252;-67
2023/04/28 05:17:56;;;;;;;1.50;1.40;;;18.40;51.10;;;;;;5068688;28;45512;-68
2023/04/28 05:20:23;;;;;;;1.50;1.40;;;18.40;51.00;;;;;;5068761;28;45316;-67
2023/04/28 05:22:50;;;;;;;1.77;1.67;;;18.40;51.20;;;;;;5068981;28;45397;-67
2023/04/28 05:25:18;;;;;;;1.45;1.30;;;18.40;51.10;;;;;;5068915;28;45336;-67
2023/04/28 05:27:45;;;;;;;1.85;1.30;;;18.40;51.00;;;;;;5068411;28;45711;-67
2023/04/28 05:30:12;;;;;;;2.03;1.70;;;18.30;51.00;;;;;;5068556;28;45399;-67
2023/04/28 05:32:39;;;;;;;1.77;1.67;;;18.30;51.10;;;;;;5068299;28;45224;-68
2023/04/28 05:35:06;;;;;;;2.10;1.83;;;18.40;51.00;;;;;;5068817;28;45290;-67
2023/04/28 05:37:33;;;;;;;1.50;1.40;;;18.30;50.90;;;;;;5068380;28;46398;-67
2023/04/28 05:40:00;;;;;;;1.38;1.30;;;18.30;50.90;;;;;;5068488;28;45249;-67
2023/04/28 05:42:28;;;;;;;2.15;1.60;;;18.30;50.90;;;;;;5068692;28;45671;-67
2023/04/28 05:44:55;;;;;;;1.77;1.67;;;18.30;50.90;;;;;;5068623;28;45363;-67
2023/04/28 05:47:21;;;;;;;2.22;1.85;;;18.30;50.90;;;;;;5068355;28;45550;-67
2023/04/28 05:49:48;;;;;;;5.80;1.90;;;18.30;50.90;;;;;;5068484;28;45316;-67
2023/04/28 05:52:15;;;;;;;1.70;1.60;;;18.30;50.90;;;;;;5068352;28;45343;-68
2023/04/28 05:54:42;;;;;;;1.60;1.50;;;18.30;51.00;;;;;;5068611;28;45353;-67
2023/04/28 05:57:09;;;;;;;2.22;1.60;;;18.30;51.00;;;;;;5067996;28;45368;-66
2023/04/28 05:59:37;;;;;;;1.40;1.30;;;18.30;51.00;;;;;;5067912;28;45371;-67
2023/04/28 06:02:04;;;;;;;1.60;1.50;;;18.30;51.00;;;;;;5067964;28;45372;-67
2023/04/28 06:04:31;;;;;;;2.63;1.30;;;18.30;51.30;;;;;;5068524;28;45170;-67
2023/04/28 06:06:57;;;;;;;1.80;1.70;;;18.30;51.20;;;;;;5067972;28;46453;-67
2023/04/28 06:09:24;;;;;;;1.30;1.30;;;18.30;51.10;;;;;;5067954;28;45455;-67
2023/04/28 06:11:51;;;;;;;1.50;1.40;;;18.30;51.10;;;;;;5068102;28;45449;-67
2023/04/28 06:14:18;;;;;;;1.75;1.63;;;18.30;51.00;;;;;;5067852;28;45282;-67
2023/04/28 06:16:46;;;;;;;1.60;1.50;;;18.30;51.10;;;;;;5067666;28;46380;-66
2023/04/28 06:19:14;;;;;;;1.92;1.30;;;18.30;51.10;;;;;;5067850;28;45388;-67
2023/04/28 06:21:41;;;;;;;1.75;1.63;;;18.30;51.10;;;;;;5067529;28;45383;-66
2023/04/28 06:24:08;;;;;;;1.58;1.48;;;18.30;51.00;;;;;;5067755;28;45576;-66
2023/04/28 06:26:34;;;;;;;1.98;1.60;;;18.30;51.30;;;;;;5067178;28;47250;-67
2023/04/28 06:29:01;;;;;;;1.27;1.17;;;18.30;51.30;;;;;;5067258;28;45177;-66
2023/04/28 06:31:28;;;;;;;1.45;1.35;;;18.30;51.20;;;;;;5067455;28;45399;-66
2023/04/28 06:33:56;;;;;;;2.25;1.63;;;18.20;51.20;;;;;;5067573;28;45219;-66
2023/04/28 06:36:23;;;;;;;1.58;1.42;;;18.20;51.30;;;;;;5067129;28;46401;-66
2023/04/28 06:38:50;;;;;;;1.55;1.45;;;18.20;51.30;;;;;;5067173;28;45247;-66
2023/04/28 06:41:17;;;;;;;2.58;1.48;;;18.20;51.70;;;;;;5067211;28;45285;-66
2023/04/28 06:43:43;;;;;;;1.40;1.30;;;18.20;51.90;;;;;;5067364;28;45372;-66
2023/04/28 06:46:10;;;;;;;2.30;1.80;;;18.20;51.50;;;;;;5066800;28;45448;-66
2023/04/28 06:48:37;;;;;;;1.48;1.38;;;18.20;51.40;;;;;;5066964;28;45420;-65
2023/04/28 06:51:05;;;;;;;3.38;1.52;;;18.20;51.50;;;;;;5067199;28;45339;-66
2023/04/28 06:53:32;;;;;;;1.88;1.60;;;18.20;51.40;;;;;;5067143;28;45174;-66
2023/04/28 06:55:59;;;;;;;1.92;1.52;;;18.20;51.60;;;;;;5067091;28;45404;-66
2023/04/28 06:58:26;;;;;;;2.00;1.33;;;18.20;52.10;;;;;;5066797;28;45486;-66
2023/04/28 07:00:53;;;;;;;1.38;1.27;;;18.20;51.60;;;;;;5067133;28;45297;-65
2023/04/28 07:03:20;;;;;;;1.73;1.40;;;18.20;51.50;;;;;;5067196;28;45305;-66
2023/04/28 07:05:47;;;;;;;3.70;1.60;;;18.20;51.70;;;;;;5066592;28;45294;-66
2023/04/28 07:08:16;;;;;;;2.22;1.30;;;18.20;51.60;;;;;;5066771;28;45431;-67
2023/04/28 07:10:43;;;;;;;1.83;1.38;;;18.20;51.70;;;;;;5066680;28;45335;-66
2023/04/28 07:13:10;;;;;;;1.95;1.35;;;18.10;51.70;;;;;;5066879;28;45321;-66
2023/04/28 07:15:36;;;;;;;1.10;1.10;;;18.10;51.60;;;;;;5066530;28;45229;-66
2023/04/28 07:18:03;;;;;;;1.70;1.60;;;18.10;52.50;;;;;;5066566;28;45434;-66
2023/04/28 07:20:30;;;;;;;1.42;1.33;;;18.10;51.80;;;;;;5066534;28;45321;-66
2023/04/28 07:22:57;;;;;;;1.73;1.40;;;18.10;51.70;;;;;;5066601;28;45328;-66
2023/04/28 07:25:25;;;;;;;1.70;1.50;;;18.10;51.70;;;;;;5066383;28;45484;-66
2023/04/28 07:27:53;;;;;;;1.52;1.40;;;18.10;51.70;;;;;;5066173;28;45493;-65
2023/04/28 07:30:20;;;;;;;1.52;1.42;;;18.10;52.50;;;;;;5066371;28;45328;-66
2023/04/28 07:32:46;;;;;;;1.75;1.50;;;18.10;51.70;;;;;;5065926;28;45380;-66
2023/04/28 07:35:13;;;;;;;2.03;1.55;;;18.10;51.70;;;;;;5066069;28;45249;-67
2023/04/28 07:37:40;;;;;;;1.50;1.40;;;18.10;51.80;;;;;;5066133;28;45312;-67
2023/04/28 07:40:08;;;;;;;1.80;1.70;;;18.10;51.80;;;;;;5066691;28;45285;-67
2023/04/28 07:42:36;;;;;;;3.28;1.50;;;18.10;51.60;;;;;;5066255;28;45369;-67
2023/04/28 07:45:03;;;;;;;1.75;1.40;;;18.10;51.90;;;;;;5066091;28;45510;-67
2023/04/28 07:47:30;;;;;;;1.52;1.42;;;18.10;51.80;;;;;;5066460;28;45277;-67
2023/04/28 07:49:58;;;;;;;1.70;1.60;;;18.10;51.80;;;;;;5066420;28;45384;-67
2023/04/28 07:52:25;;;;;;;1.40;1.30;;;18.10;51.70;;;;;;5066352;28;45721;-67
2023/04/28 07:54:52;;;;;;;2.78;1.48;;;18.10;51.90;;;;;;5065843;28;46672;-67
2023/04/28 07:57:19;;;;;;;5.28;1.40;;;18.10;51.90;;;;;;5065962;28;45312;-67
2023/04/28 07:59:47;;;;;;;1.23;1.13;;;18.20;51.80;;;;;;5066091;28;45329;-67
2023/04/28 08:02:14;;;;;;;2.30;1.45;;;18.20;51.90;;;;;;5066124;28;45325;-67
2023/04/28 08:04:40;;;;;;;1.50;1.40;;;18.20;52.10;;;;;;5065793;28;47556;-67
2023/04/28 08:07:08;;;;;;;2.17;1.45;;;18.20;52.10;;;;;;5065858;28;45471;-67
2023/04/28 08:09:35;;;;;;;1.77;1.67;;;18.20;52.10;;;;;;5065953;28;45261;-67
2023/04/28 08:12:02;;;;;;;2.10;1.30;;;18.20;52.10;;;;;;5065950;28;45305;-67
2023/04/28 08:14:28;;;;;;;1.95;1.35;;;18.20;52.30;;;;;;5065577;28;46514;-67
2023/04/28 08:16:57;;;;;;;1.95;1.60;;;18.20;52.00;;;;;;5065808;28;45344;-67
2023/04/28 08:19:23;;;;;;;3.60;1.45;;;18.20;52.00;;;;;;5065508;28;45335;-67
2023/04/28 08:21:50;;;;;;;1.60;1.50;;;18.20;52.00;;;;;;5065642;28;45415;-67
2023/04/28 08:24:17;;;;;;;2.22;1.40;;;18.20;52.00;;;;;;5065483;28;45276;-67
2023/04/28 08:26:44;;;;;;;1.67;1.52;;;18.20;52.20;;;;;;5065073;28;45348;-66
2023/04/28 08:29:11;;;;;;;2.50;1.48;;;18.20;52.70;;;;;;5066031;28;45368;-67
2023/04/28 08:31:38;;;;;;;2.22;1.45;;;18.20;52.10;;;;;;5066095;28;45417;-67
2023/04/28 08:34:06;;;;;;;1.55;1.45;;;18.20;52.20;;;;;;5065271;28;45262;-67
2023/04/28 08:36:34;;;;;;;3.45;1.80;;;18.20;52.10;;;;;;5065707;28;45258;-67
2023/04/28 08:39:02;;;;;;;2.03;1.50;;;18.20;52.10;;;;;;5065540;28;45390;-67
2023/04/28 08:41:29;;;;;;;4.00;1.70;;;18.20;52.30;;;;;;5065473;28;45254;-67
2023/04/28 08:43:55;;;;;;;1.80;1.38;;;18.20;52.30;;;;;;5066520;28;47991;-67
2023/04/28 08:46:22;;;;;;;2.30;1.63;;;18.20;52.20;;;;;;5068916;28;45324;-66
2023/04/28 08:48:49;;;;;;;2.28;2.00;;;18.20;52.40;;;;;;5069242;28;45397;-67
2023/04/28 08:51:25;;;;;;;2.28;1.80;;;18.20;52.50;;;;;;5069200;28;45435;-67
2023/04/28 08:53:53;;;;;;;2.95;1.70;;;18.20;52.30;;;;;;5068848;28;46459;-67
2023/04/28 08:56:19;;;;;;;1.73;1.63;;;18.20;52.40;;;;;;5069002;28;45360;-67
2023/04/28 08:58:46;;;;;;;2.25;1.70;;;18.20;52.20;;;;;;5069082;28;45340;-67
2023/04/28 09:01:13;;;;;;;3.08;1.83;;;18.20;52.10;;;;;;5069065;28;45333;-67
2023/04/28 09:03:40;;;;;;;2.38;1.77;;;18.20;52.10;;;;;;5068597;28;46342;-67
2023/04/28 09:06:07;;;;;;;2.05;1.70;;;18.20;52.10;;;;;;5068645;28;45429;-67
2023/04/28 09:08:35;;;;;;;2.63;1.77;;;18.20;52.00;;;;;;5068719;28;45357;-67
2023/04/28 09:11:08;;;;;;;3.20;1.70;;;18.20;52.00;;;;;;5062343;28;45412;-67
2023/04/28 09:13:35;;;;;;;2.50;1.92;;;18.20;52.00;;;;;;5052856;28;45253;-68
2023/04/28 09:16:03;;;;;;;3.15;1.90;;;18.20;52.00;;;;;;5048377;28;45222;-68
2023/04/28 09:18:31;;;;;;;3.92;1.63;;;18.30;52.10;;;;;;5048458;28;45309;-68
2023/04/28 09:21:08;;;;;;;2.30;1.88;;;18.20;52.10;;;;;;5048429;28;45498;-68
2023/04/28 09:23:46;;;;;;;3.20;2.00;;;18.30;52.10;;;;;;5047939;28;45388;-67
2023/04/28 09:26:13;;;;;;;3.10;1.80;;;18.30;52.10;;;;;;5047677;28;45254;-67
2023/04/28 09:28:39;;;;;;;2.63;1.80;;;18.30;52.00;;;;;;5048012;28;45268;-67
2023/04/28 09:31:06;;;;;;;4.13;1.90;;;18.30;52.10;;;;;;5048292;28;45437;-67
2023/04/28 09:33:33;;;;;;;2.30;1.80;;;18.30;52.10;;;;;;5047919;28;45474;-67
2023/04/28 09:36:00;;;;;;;2.45;1.95;;;18.30;52.70;;;;;;5047794;28;45504;-68
2023/04/28 09:38:27;;;;;;;3.35;2.00;;;18.30;52.90;;;;;;5048213;28;45186;-68
2023/04/28 09:40:57;;;;;;;2.72;1.98;;;18.30;52.00;;;;;;5048191;28;45446;-68
2023/04/28 09:43:25;;;;;;;2.78;1.60;;;18.30;52.00;;;;;;5047674;28;45306;-67
2023/04/28 09:45:52;;;;;;;2.45;1.90;;;18.30;52.00;;;;;;5047831;28;45316;-68
2023/04/28 09:48:26;;;;;;;2.28;1.80;;;18.30;52.00;;;;;;5047993;28;45317;-68
2023/04/28 09:50:54;;;;;;;3.05;2.20;;;18.30;52.00;;;;;;5047984;28;45553;-67
2023/04/28 09:53:21;;;;;;;1.92;1.80;;;18.40;52.00;;;;;;5047364;28;45402;-67
2023/04/28 09:55:48;;;;;;;1.67;1.58;;;18.40;51.90;;;;;;5047218;28;45325;-67
2023/04/28 09:58:17;;;;;;;4.50;1.90;;;18.40;52.00;;;;;;5047663;28;45522;-67
2023/04/28 10:00:43;;;;;;;3.28;1.83;;;18.40;51.90;;;;;;5047771;28;45416;-67
2023/04/28 10:03:10;;;;;;;3.95;2.00;;;18.50;52.00;;;;;;5047323;28;45313;-68
2023/04/28 10:05:38;;;;;;;2.88;2.03;;;18.50;51.80;;;;;;5047448;28;45317;-68
2023/04/28 10:08:05;;;;;;;3.80;2.05;;;18.50;51.90;;;;;;5051624;28;45551;-68
2023/04/28 10:10:32;;;;;;;2.42;2.05;;;18.50;52.60;;;;;;5067482;28;45392;-67
2023/04/28 10:12:59;;;;;;;5.20;2.40;;;18.50;52.20;;;;;;5067299;28;46731;-68
2023/04/28 10:15:27;;;;;;;3.17;2.38;;;18.50;52.40;;;;;;5067425;28;45289;-67
2023/04/28 10:17:54;;;;;;;4.25;2.35;;;18.50;52.50;;;;;;5067560;28;45493;-67
2023/04/28 10:20:21;;;;;;;2.15;1.98;;;18.50;52.80;;;;;;5067638;28;45348;-67
2023/04/28 10:22:54;;;;;;;7.95;2.47;;;18.50;52.80;;;;;;5066973;28;46838;-67
2023/04/28 10:25:26;;;;;;;2.97;2.30;;;18.50;53.30;;;;;;5067390;28;45461;-67
2023/04/28 10:27:53;;;;;;;3.70;2.05;;;18.60;53.00;;;;;;5067148;28;45240;-67
2023/04/28 10:30:20;;;;;;;2.30;2.10;;;18.50;52.80;;;;;;5067927;28;45390;-68
2023/04/28 10:32:48;;;;;;;2.47;2.28;;;18.60;53.00;;;;;;5067069;28;45247;-68
2023/04/28 10:35:41;;;;;;;3.92;2.17;;;18.60;52.90;;;;;;5067168;28;45320;-67
2023/04/28 10:38:09;;;;;;;4.38;2.50;;;18.60;52.90;;;;;;5067569;28;45275;-67
2023/04/28 10:40:37;;;;;;;4.95;2.40;;;18.70;53.20;;;;;;5067402;28;45416;-68
2023/04/28 10:43:04;;;;;;;5.45;2.17;;;18.70;53.10;;;;;;5066876;28;46440;-67
2023/04/28 10:45:59;;;;;;;3.22;2.28;;;18.70;53.30;;;;;;5066944;28;45355;-67
2023/04/28 10:48:55;;;;;;;3.63;2.78;;;18.70;53.30;;;;;;5067131;28;45293;-67
2023/04/28 10:51:29;;;;;;;4.15;2.50;;;18.70;53.50;;;;;;5067036;28;45339;-67
2023/04/28 10:54:18;;;;;;;4.00;2.58;;;18.70;53.50;;;;;;5066624;28;46678;-67
2023/04/28 10:57:19;;;;;;;3.35;2.45;;;18.70;53.40;;;;;;5066840;28;45355;-67
2023/04/28 10:59:46;;;;;;;3.17;2.40;;;18.80;53.40;;;;;;5066925;28;45473;-67
2023/04/28 11:02:38;;;;;;;3.13;2.22;;;18.80;53.30;;;;;;5067130;28;45349;-67
2023/04/28 11:05:13;;;;;;;3.22;2.33;;;18.90;53.50;;;;;;5063380;28;46691;-67
2023/04/28 11:07:40;;;;;;;4.20;2.40;;;18.90;53.50;;;;;;5065681;28;45389;-67
2023/04/28 11:10:08;;;;;;;3.20;2.50;;;18.90;53.40;;;;;;5066691;28;45375;-67
2023/04/28 11:12:35;;;;;;;3.15;2.80;;;18.90;53.50;;;;;;5066573;28;45402;-67
2023/04/28 11:15:12;;;;;;;3.28;2.80;;;19.00;53.80;;;;;;5066633;28;47327;-67
2023/04/28 11:17:40;;;;;;;3.75;2.63;;;19.00;53.90;;;;;;5066365;28;45346;-67
2023/04/28 11:20:08;;;;;;;3.10;2.33;;;19.00;53.90;;;;;;5066537;28;45333;-68
2023/04/28 11:22:36;;;;;;;2.85;2.40;;;19.00;54.00;;;;;;5068124;28;45237;-69
2023/04/28 11:25:03;;;;;;;3.75;2.30;;;19.00;54.20;;;;;;5086678;28;46413;-69
2023/04/28 11:27:31;;;;;;;2.95;2.40;;;19.00;54.10;;;;;;5068946;28;45404;-69
2023/04/28 11:29:58;;;;;;;4.93;2.85;;;19.10;54.20;;;;;;5087051;28;45353;-69
2023/04/28 11:32:28;;;;;;;2.45;2.25;;;19.10;54.30;;;;;;5086681;28;45299;-69
2023/04/28 11:34:55;;;;;;;2.97;2.35;;;19.10;54.50;;;;;;5086288;28;46684;-69
2023/04/28 11:37:21;;;;;;;2.55;2.35;;;19.10;54.50;;;;;;5080820;28;45525;-70
2023/04/28 11:39:50;;;;;;;4.10;2.67;;;19.20;54.50;;;;;;5084612;28;45349;-69
2023/04/28 11:42:17;;;;;;;4.10;2.60;;;19.20;54.50;;;;;;5084645;28;45246;-68
2023/04/28 11:44:49;;;;;;;4.03;2.50;;;19.30;55.00;;;;;;5086175;28;45410;-67
2023/04/28 11:47:16;;;;;;;5.05;2.70;;;19.30;54.70;;;;;;5076280;28;45290;-69
2023/04/28 11:49:44;;;;;;;4.28;2.80;;;19.30;54.80;;;;;;5077114;28;45269;-69
2023/04/28 11:52:11;;;;;;;6.88;3.17;;;19.30;55.00;;;;;;5086126;28;45310;-68
2023/04/28 11:54:37;;;;;;;5.00;3.30;;;19.30;55.00;;;;;;5083375;28;46195;-68
2023/04/28 11:57:06;;;;;;;3.80;3.08;;;19.40;55.00;;;;;;5084308;28;45471;-68
2023/04/28 11:59:33;;;;;;;3.47;2.90;;;19.40;55.20;;;;;;5084169;28;45278;-71
2023/04/28 12:02:02;;;;;;;4.40;3.10;;;19.40;56.00;;;;;;5085970;28;45356;-69
2023/04/28 12:04:30;;;;;;;4.22;3.40;;;19.50;55.50;;;;;;5086036;28;47342;-70
2023/04/28 12:07:01;;;;;;;4.28;3.20;;;19.50;55.50;;;;;;5073041;28;45474;-70
2023/04/28 12:09:28;;;;;;;6.82;3.42;;;19.50;55.40;;;;;;5074695;28;45397;-71
2023/04/28 12:11:56;;;;;;;3.50;2.92;;;19.60;55.60;;;;;;5065982;28;45453;-71
2023/04/28 12:14:24;;;;;;;4.50;3.50;;;19.60;55.50;;;;;;5060080;28;45448;-71
2023/04/28 12:16:52;;;;;;;5.20;3.10;;;19.70;55.90;;;;;;5064450;28;45440;-71
2023/04/28 12:19:19;;;;;;;4.95;3.17;;;19.80;55.20;;;;;;5062408;28;45416;-71
2023/04/28 12:21:59;;;;;;;4.38;2.80;;;19.80;55.60;;;;;;5065189;28;45575;-70
2023/04/28 12:24:25;;;;;;;3.22;2.92;;;19.90;55.30;;;;;;5069036;28;45463;-69
2023/04/28 12:26:53;;;;;;;4.20;2.88;;;19.90;55.30;;;;;;5074022;28;45444;-68
2023/04/28 12:29:40;;;;;;;4.20;3.17;;;19.90;55.20;;;;;;5068461;28;45442;-69
2023/04/28 12:32:07;;;;;;;5.00;3.08;;;20.00;55.10;;;;;;5064487;28;45463;-70
2023/04/28 12:34:34;;;;;;;2.92;2.67;;;20.00;55.40;;;;;;5065191;28;46382;-69
2023/04/28 12:37:04;;;;;;;5.10;3.05;;;20.00;55.70;;;;;;5064126;28;45377;-71
2023/04/28 12:39:31;;;;;;;3.17;2.88;;;20.00;55.40;;;;;;5064422;28;45440;-71
2023/04/28 12:41:59;;;;;;;4.45;2.90;;;20.00;55.90;;;;;;5066719;28;45384;-71
2023/04/28 12:44:26;;;;;;;3.30;2.45;;;20.00;55.60;;;;;;5064700;28;45490;-69
2023/04/28 12:46:55;;;;;;;3.53;2.80;;;20.00;55.60;;;;;;5068872;28;45864;-69
2023/04/28 12:49:22;;;;;;;4.50;3.05;;;20.00;56.30;;;;;;5074411;28;45472;-71
2023/04/28 12:51:49;;;;;;;3.67;2.65;;;20.00;56.60;;;;;;5064541;28;45497;-71